Time;durP1;ratioP1;P1;durP2;ratioP2;P2;SDS_P1;SDS_P2;PMS_P1;PMS_P2;Temp;Humidity;BMP_temperature;BMP_pressure;BME280_temperature;BME280_humidity;BME280_pressure;Samples;Min_cycle;Max_cycle;Signal;HPM_P1;HPM_P2
2022/04/10 00:00:43;;;;;;;12.25;3.75;;;4.10;80.50;;;;;;5165237;28;20050;-73
2022/04/10 00:03:16;;;;;;;10.02;4.28;;;4.00;80.60;;;;;;5167785;28;20056;-74
2022/04/10 00:05:49;;;;;;;9.25;3.55;;;4.00;80.80;;;;;;5174257;28;20049;-74
2022/04/10 00:08:22;;;;;;;8.43;3.90;;;3.80;80.60;;;;;;5172398;28;20065;-73
2022/04/10 00:10:54;;;;;;;10.95;4.45;;;3.80;80.90;;;;;;5167839;28;20057;-72
2022/04/10 00:13:27;;;;;;;7.38;3.78;;;3.70;81.60;;;;;;5176606;28;20303;-75
2022/04/10 00:16:00;;;;;;;15.43;5.50;;;3.70;81.80;;;;;;5173379;28;20054;-74
2022/04/10 00:18:34;;;;;;;9.73;5.30;;;3.70;82.10;;;;;;5160663;28;20925;-74
2022/04/10 00:21:07;;;;;;;11.88;5.20;;;3.70;82.20;;;;;;5171806;28;21700;-74
2022/04/10 00:23:40;;;;;;;10.93;4.45;;;3.60;82.10;;;;;;5171283;28;20531;-74
2022/04/10 00:26:13;;;;;;;11.35;4.60;;;3.60;82.50;;;;;;5171902;28;20042;-73
2022/04/10 00:28:46;;;;;;;10.07;4.22;;;3.60;82.70;;;;;;5168312;28;20974;-72
2022/04/10 00:31:20;;;;;;;18.85;6.70;;;3.50;82.70;;;;;;5169008;28;20602;-74
2022/04/10 00:33:52;;;;;;;27.23;6.40;;;3.40;83.30;;;;;;5174526;28;20045;-73
2022/04/10 00:36:25;;;;;;;18.63;6.60;;;3.40;83.50;;;;;;5171342;28;20056;-73
2022/04/10 00:38:58;;;;;;;15.50;8.43;;;3.40;84.00;;;;;;5167567;28;20397;-73
2022/04/10 00:41:30;;;;;;;19.57;8.60;;;3.30;84.30;;;;;;5160946;28;21938;-75
2022/04/10 00:44:11;;;;;;;28.67;12.15;;;3.30;84.50;;;;;;5166645;28;20056;-73
2022/04/10 00:46:43;;;;;;;26.80;12.10;;;3.30;84.90;;;;;;5169784;28;20050;-73
2022/04/10 00:49:15;;;;;;;29.95;9.63;;;3.20;85.00;;;;;;5186618;28;20129;-73
2022/04/10 00:51:52;;;;;;;29.63;13.88;;;3.20;85.00;;;;;;5180929;28;20045;-73
2022/04/10 00:54:26;;;;;;;26.17;10.90;;;3.20;85.20;;;;;;5176096;28;20048;-73
2022/04/10 00:57:00;;;;;;;;;;;3.20;85.60;;;;;;5149238;28;20053;-74
2022/04/10 00:59:33;;;;;;;17.17;8.45;;;3.00;87.20;;;;;;5169515;28;19929;-73
2022/04/10 01:02:05;;;;;;;12.68;6.85;;;3.00;85.80;;;;;;5173126;28;20053;-74
2022/04/10 01:04:46;;;;;;;18.73;9.18;;;3.00;85.80;;;;;;5155562;28;20046;-74
2022/04/10 01:07:20;;;;;;;10.80;5.05;;;3.00;86.10;;;;;;5152455;28;20064;-74
2022/04/10 01:09:53;;;;;;;12.18;5.30;;;2.90;86.00;;;;;;5149418;28;20050;-74
2022/04/10 01:12:26;;;;;;;11.38;4.95;;;2.90;86.20;;;;;;5170189;28;20049;-74
2022/04/10 01:15:04;;;;;;;10.60;4.75;;;2.90;86.40;;;;;;5166993;28;20069;-74
2022/04/10 01:17:39;;;;;;;9.98;5.15;;;2.80;86.60;;;;;;5148615;28;20489;-74
2022/04/10 01:20:12;;;;;;;9.93;5.03;;;2.90;86.80;;;;;;5167671;28;21034;-74
2022/04/10 01:22:48;;;;;;;8.05;5.00;;;2.90;87.10;;;;;;5171726;28;20048;-74
2022/04/10 01:25:21;;;;;;;14.38;5.93;;;2.80;87.70;;;;;;5151208;28;20049;-73
2022/04/10 01:27:53;;;;;;;10.88;5.15;;;2.80;88.60;;;;;;5168610;28;20069;-73
2022/04/10 01:30:30;;;;;;;13.63;5.53;;;2.80;88.90;;;;;;5152216;28;20046;-73
2022/04/10 01:33:03;;;;;;;10.07;5.72;;;2.70;89.30;;;;;;5183097;28;20733;-74
2022/04/10 01:35:37;;;;;;;9.48;5.28;;;2.70;89.70;;;;;;5168267;28;20060;-73
2022/04/10 01:38:12;;;;;;;15.07;6.30;;;2.70;90.30;;;;;;5150509;28;26097;-73
2022/04/10 01:40:50;;;;;;;8.18;5.60;;;2.70;90.60;;;;;;5162645;28;20053;-74
2022/04/10 01:43:23;;;;;;;8.57;5.22;;;2.70;90.60;;;;;;5170651;28;20065;-73
2022/04/10 01:45:56;;;;;;;12.02;5.07;;;2.60;90.80;;;;;;5176387;28;20041;-73
2022/04/10 01:48:28;;;;;;;12.88;5.53;;;2.50;91.30;;;;;;5152883;28;20497;-74
2022/04/10 01:51:01;;;;;;;9.02;5.30;;;2.50;91.60;;;;;;5172117;28;20061;-73
2022/04/10 01:53:34;;;;;;;12.02;5.90;;;2.50;91.70;;;;;;5173592;28;20061;-73
2022/04/10 01:56:09;;;;;;;7.55;4.93;;;2.40;92.00;;;;;;5173144;28;20473;-73
2022/04/10 01:58:44;;;;;;;10.18;5.25;;;2.40;92.50;;;;;;5156286;28;20060;-73
2022/04/10 02:01:18;;;;;;;9.50;4.95;;;2.40;92.90;;;;;;5179125;28;20042;-74
2022/04/10 02:03:51;;;;;;;;;;;2.40;93.10;;;;;;5174650;28;20046;-74
2022/04/10 02:06:23;;;;;;;8.35;4.93;;;2.30;96.20;;;;;;5178861;28;19925;-73
2022/04/10 02:08:57;;;;;;;9.05;5.38;;;2.40;93.70;;;;;;5171453;28;20053;-73
2022/04/10 02:11:29;;;;;;;9.60;5.32;;;2.40;94.40;;;;;;5149729;28;20065;-73
2022/04/10 02:14:05;;;;;;;10.02;4.57;;;2.40;94.90;;;;;;5158227;28;20042;-73
2022/04/10 02:16:38;;;;;;;12.23;5.60;;;2.40;95.60;;;;;;5144871;28;20049;-74
2022/04/10 02:19:11;;;;;;;8.77;5.15;;;2.30;96.00;;;;;;5154456;28;20411;-73
2022/04/10 02:21:43;;;;;;;10.45;4.85;;;2.30;96.60;;;;;;5148918;28;20045;-74
2022/04/10 02:24:15;;;;;;;10.07;5.22;;;2.30;97.00;;;;;;5149536;28;27056;-74
2022/04/10 02:26:49;;;;;;;9.65;5.50;;;2.40;97.60;;;;;;5143482;28;20050;-74
2022/04/10 02:29:22;;;;;;;;;;;2.40;98.20;;;;;;5140784;28;20056;-73
2022/04/10 02:31:55;;;;;;;8.32;4.47;;;2.40;99.90;;;;;;5185090;28;19984;-73
2022/04/10 02:34:28;;;;;;;9.07;5.30;;;2.40;98.30;;;;;;5165270;28;20060;-73
2022/04/10 02:37:00;;;;;;;11.82;5.13;;;2.40;99.00;;;;;;5180855;28;21045;-74
2022/04/10 02:39:33;;;;;;;10.35;5.22;;;2.50;99.50;;;;;;5154936;28;20050;-74
2022/04/10 02:42:06;;;;;;;8.18;4.90;;;2.50;99.90;;;;;;5149012;28;20053;-74
2022/04/10 02:44:39;;;;;;;8.38;5.30;;;2.60;99.90;;;;;;5146810;28;20234;-74
2022/04/10 02:47:11;;;;;;;11.10;5.00;;;2.60;99.90;;;;;;5134228;28;20064;-74
2022/04/10 02:49:44;;;;;;;14.52;5.18;;;2.70;99.90;;;;;;5127402;28;20061;-75
2022/04/10 02:52:17;;;;;;;9.40;5.05;;;2.70;99.90;;;;;;5159977;28;20045;-74
2022/04/10 02:54:50;;;;;;;9.20;5.55;;;2.80;99.90;;;;;;5136583;28;20054;-73
2022/04/10 02:57:41;;;;;;;9.93;5.50;;;2.80;99.90;;;;;;5167233;28;20076;-74
2022/04/10 03:00:32;;;;;;;15.95;6.00;;;2.80;99.90;;;;;;5137836;28;20144;-74
2022/04/10 03:03:23;;;;;;;9.82;4.93;;;2.90;99.90;;;;;;5159527;28;20063;-74
2022/04/10 03:06:14;;;;;;;8.75;4.65;;;2.80;99.90;;;;;;5156380;28;20060;-74
2022/04/10 03:09:05;;;;;;;9.65;4.75;;;2.90;99.90;;;;;;5156597;28;20167;-73
2022/04/10 03:11:56;;;;;;;9.75;4.50;;;2.90;99.90;;;;;;5143136;28;20756;-74
2022/04/10 03:14:47;;;;;;;8.40;4.50;;;2.80;99.90;;;;;;5137858;28;20421;-74
2022/04/10 03:17:38;;;;;;;6.95;4.18;;;2.80;99.90;;;;;;5154012;28;20087;-74
2022/04/10 03:20:30;;;;;;;8.20;4.82;;;2.90;99.90;;;;;;5145485;28;20068;-74
2022/04/10 03:23:22;;;;;;;13.32;3.85;;;2.90;99.90;;;;;;5158507;28;20065;-72
2022/04/10 03:26:14;;;;;;;10.65;4.47;;;2.80;99.90;;;;;;5167811;28;20056;-73
2022/04/10 03:29:05;;;;;;;13.63;5.60;;;2.90;99.90;;;;;;5160779;28;21065;-73
2022/04/10 03:31:56;;;;;;;9.82;4.18;;;3.00;99.90;;;;;;5157827;28;20061;-73
2022/04/10 03:34:47;;;;;;;9.35;4.30;;;3.10;99.90;;;;;;5179350;28;20065;-72
2022/04/10 03:37:38;;;;;;;5.40;3.92;;;3.10;99.90;;;;;;5179409;28;20068;-73
2022/04/10 03:40:30;;;;;;;12.82;5.75;;;3.10;99.90;;;;;;5157590;28;20053;-74
2022/04/10 03:43:21;;;;;;;9.13;5.38;;;3.00;99.90;;;;;;5180521;28;20077;-73
2022/04/10 03:46:12;;;;;;;13.52;5.32;;;3.00;99.90;;;;;;5179021;28;20053;-74
2022/04/10 03:49:04;;;;;;;12.13;4.40;;;3.10;99.90;;;;;;5180273;28;20052;-73
2022/04/10 03:51:55;;;;;;;10.48;4.85;;;3.00;99.90;;;;;;5172046;28;20049;-73
2022/04/10 03:54:46;;;;;;;9.57;4.60;;;3.00;99.90;;;;;;5166244;28;20057;-73
2022/04/10 03:57:37;;;;;;;10.95;5.35;;;3.00;99.90;;;;;;5183288;28;20057;-73
2022/04/10 04:00:29;;;;;;;10.75;5.18;;;2.90;99.90;;;;;;5172158;28;20057;-75
2022/04/10 04:03:27;;;;;;;15.57;5.72;;;3.00;99.90;;;;;;5189149;28;20054;-75
2022/04/10 04:06:18;;;;;;;13.93;5.60;;;2.90;99.90;;;;;;5169857;28;20563;-73
2022/04/10 04:09:09;;;;;;;10.77;5.90;;;2.90;99.90;;;;;;5187855;28;20151;-73
2022/04/10 04:12:00;;;;;;;11.90;6.90;;;2.80;99.90;;;;;;5151243;28;20060;-73
2022/04/10 04:14:53;;;;;;;20.48;9.38;;;2.70;99.90;;;;;;5179169;28;20370;-73
2022/04/10 04:17:44;;;;;;;12.77;6.00;;;2.70;99.90;;;;;;5172945;28;20084;-73
2022/04/10 04:20:35;;;;;;;10.95;5.72;;;2.70;99.90;;;;;;5177770;28;20060;-73
2022/04/10 04:23:29;;;;;;;14.27;6.38;;;2.70;99.90;;;;;;5194661;28;20425;-73
2022/04/10 04:26:22;;;;;;;11.45;6.22;;;2.60;99.90;;;;;;5195440;28;20068;-73
2022/04/10 04:29:13;;;;;;;16.60;6.45;;;2.60;99.90;;;;;;5181633;28;20056;-73
2022/04/10 04:32:05;;;;;;;15.70;6.90;;;2.60;99.90;;;;;;5176850;28;20541;-74
2022/04/10 04:34:55;;;;;;;10.73;6.45;;;2.60;99.90;;;;;;5185147;28;20056;-73
2022/04/10 04:37:47;;;;;;;14.30;7.13;;;2.60;99.90;;;;;;5167258;28;20374;-73
2022/04/10 04:40:42;;;;;;;12.00;6.53;;;2.70;99.90;;;;;;5175545;28;20050;-72
2022/04/10 04:43:33;;;;;;;12.98;6.88;;;2.70;99.90;;;;;;5146880;28;20441;-73
2022/04/10 04:46:24;;;;;;;12.32;6.10;;;2.70;99.90;;;;;;5178627;28;20056;-73
2022/04/10 04:49:16;;;;;;;13.32;6.32;;;2.70;99.90;;;;;;5183181;28;20631;-73
2022/04/10 04:52:08;;;;;;;17.83;7.15;;;2.70;99.90;;;;;;5165424;28;20065;-73
2022/04/10 04:54:59;;;;;;;10.88;6.07;;;2.70;99.90;;;;;;5151818;28;20057;-73
2022/04/10 04:57:51;;;;;;;12.25;6.38;;;2.80;99.90;;;;;;5160124;28;20052;-73
2022/04/10 05:00:42;;;;;;;11.43;6.70;;;2.90;99.90;;;;;;5163855;28;20147;-74
2022/04/10 05:03:34;;;;;;;18.83;6.85;;;2.90;99.90;;;;;;5161136;28;20591;-74
2022/04/10 05:06:26;;;;;;;16.75;7.22;;;2.90;99.90;;;;;;5167573;28;20052;-74
2022/04/10 05:09:17;;;;;;;13.77;6.60;;;3.00;99.90;;;;;;5158996;28;20060;-74
2022/04/10 05:12:08;;;;;;;12.82;7.13;;;3.10;99.90;;;;;;5158178;28;20124;-74
2022/04/10 05:15:00;;;;;;;17.00;7.00;;;3.20;99.90;;;;;;5165758;28;20057;-74
2022/04/10 05:17:53;;;;;;;11.77;6.43;;;3.20;99.90;;;;;;5162737;28;20061;-74
2022/04/10 05:20:46;;;;;;;12.88;6.22;;;3.20;99.90;;;;;;5166768;28;20057;-74
2022/04/10 05:23:41;;;;;;;17.20;6.55;;;3.20;99.90;;;;;;5170236;28;20088;-73
2022/04/10 05:26:37;;;;;;;12.65;6.35;;;3.20;99.90;;;;;;5167243;28;20056;-74
2022/04/10 05:29:29;;;;;;;13.27;6.78;;;3.20;99.90;;;;;;5173119;28;20064;-74
2022/04/10 05:32:20;;;;;;;17.40;6.78;;;3.30;99.90;;;;;;5169811;28;20068;-74
2022/04/10 05:35:12;;;;;;;14.20;7.00;;;3.30;99.90;;;;;;5184957;28;20131;-74
2022/04/10 05:38:04;;;;;;;13.50;7.35;;;3.40;99.90;;;;;;5171058;28;20618;-75
2022/04/10 05:40:58;;;;;;;12.65;6.55;;;3.40;99.90;;;;;;5160178;28;20081;-74
2022/04/10 05:43:52;;;;;;;16.92;6.63;;;3.40;99.90;;;;;;5157653;28;21874;-74
2022/04/10 05:46:44;;;;;;;11.20;6.57;;;3.40;99.90;;;;;;5168654;28;20136;-74
2022/04/10 05:49:41;;;;;;;17.77;6.75;;;3.50;99.90;;;;;;5147029;28;20127;-74
2022/04/10 05:52:46;;;;;;;9.40;6.32;;;3.50;99.90;;;;;;5149661;28;20054;-74
2022/04/10 05:55:39;;;;;;;15.65;6.80;;;3.50;99.90;;;;;;5161881;28;20065;-73
2022/04/10 05:58:34;;;;;;;13.25;7.10;;;3.50;99.90;;;;;;5152744;28;20064;-74
2022/04/10 06:01:26;;;;;;;12.63;6.90;;;3.60;99.90;;;;;;5159275;28;21972;-75
2022/04/10 06:04:18;;;;;;;17.92;6.50;;;3.70;99.90;;;;;;5170723;28;20451;-73
2022/04/10 06:07:10;;;;;;;13.10;7.22;;;3.70;99.90;;;;;;5148753;28;20072;-73
2022/04/10 06:10:05;;;;;;;12.77;6.78;;;3.80;99.90;;;;;;5172509;28;20064;-74
2022/04/10 06:13:09;;;;;;;11.52;6.97;;;3.80;99.90;;;;;;5160159;28;20076;-74
2022/04/10 06:16:06;;;;;;;14.02;6.88;;;3.80;99.90;;;;;;5159828;28;20042;-73
2022/04/10 06:18:40;;;;;;;;;;;3.80;99.90;;;;;;5169004;28;20042;-74
2022/04/10 06:21:13;;;;;;;14.75;6.80;;;3.90;99.90;;;;;;5184322;28;20321;-73
2022/04/10 06:23:48;;;;;;;14.73;7.30;;;4.00;99.90;;;;;;5158902;28;20045;-73
2022/04/10 06:26:28;;;;;;;13.50;6.72;;;4.00;99.90;;;;;;5151632;28;20053;-74
2022/04/10 06:29:00;;;;;;;17.88;7.47;;;4.20;99.90;;;;;;5174454;28;20049;-73
2022/04/10 06:31:43;;;;;;;13.63;6.97;;;4.30;99.90;;;;;;5180022;28;20402;-73
2022/04/10 06:34:15;;;;;;;11.57;7.15;;;4.40;99.90;;;;;;5168251;28;20053;-73
2022/04/10 06:36:48;;;;;;;10.13;6.53;;;4.50;99.90;;;;;;5157287;28;20044;-73
2022/04/10 06:39:23;;;;;;;15.07;7.22;;;4.60;99.90;;;;;;5167410;28;20140;-73
2022/04/10 06:41:59;;;;;;;14.32;7.63;;;4.60;99.90;;;;;;5169152;28;20061;-72
2022/04/10 06:44:54;;;;;;;12.50;7.30;;;4.70;99.90;;;;;;5184602;28;22037;-73
2022/04/10 06:47:59;;;;;;;14.82;7.55;;;4.50;99.90;;;;;;5176199;28;20061;-73
2022/04/10 06:50:43;;;;;;;18.67;9.05;;;4.40;99.90;;;;;;5140872;28;20049;-73
2022/04/10 06:53:22;;;;;;;15.05;9.25;;;4.10;99.90;;;;;;5185037;28;20064;-73
2022/04/10 06:55:55;;;;;;;;;;;4.00;99.90;;;;;;5159729;28;20054;-73
2022/04/10 06:58:28;;;;;;;21.17;9.90;;;3.90;99.90;;;;;;5172160;28;19936;-73
2022/04/10 07:01:02;;;;;;;;;;;3.80;99.90;;;;;;5178666;28;21008;-73
2022/04/10 07:03:34;;;;;;;16.55;10.13;;;3.90;99.90;;;;;;5163221;28;19932;-73
2022/04/10 07:06:11;;;;;;;17.67;9.40;;;4.00;99.90;;;;;;5165702;28;20350;-73
2022/04/10 07:08:43;;;;;;;15.88;8.82;;;4.10;99.90;;;;;;5153894;28;20912;-73
2022/04/10 07:11:16;;;;;;;16.38;9.13;;;4.30;99.90;;;;;;5140369;28;20057;-72
2022/04/10 07:13:48;;;;;;;17.25;9.75;;;4.30;99.90;;;;;;5169906;28;20053;-72
2022/04/10 07:16:21;;;;;;;16.53;8.30;;;4.30;99.90;;;;;;5185583;28;20060;-72
2022/04/10 07:18:54;;;;;;;17.85;7.97;;;4.40;99.90;;;;;;5165003;28;20054;-73
2022/04/10 07:24:21;;;;;;;15.82;8.50;;;4.60;99.90;;;;;;5173039;28;20370;-73
2022/04/10 07:27:00;;;;;;;14.07;8.38;;;4.70;99.90;;;;;;5149531;28;20041;-73
2022/04/10 07:29:39;;;;;;;13.82;8.38;;;4.90;99.90;;;;;;5164199;28;20076;-72
2022/04/10 07:32:11;;;;;;;10.73;7.43;;;5.00;99.90;;;;;;5188794;28;20524;-73
2022/04/10 07:34:51;;;;;;;15.68;8.30;;;5.10;99.90;;;;;;5168727;28;20401;-73
2022/04/10 07:37:39;;;;;;;15.63;7.70;;;5.20;99.90;;;;;;5178496;28;20508;-73
2022/04/10 07:40:12;;;;;;;17.13;8.45;;;5.30;99.90;;;;;;5173843;28;20060;-73
2022/04/10 07:42:45;;;;;;;16.55;8.77;;;5.30;99.90;;;;;;5171961;28;20063;-73
2022/04/10 07:48:36;;;;;;;13.95;8.40;;;5.20;99.90;;;;;;5150097;28;20054;-72
2022/04/10 07:51:09;;;;;;;15.30;7.88;;;5.30;99.90;;;;;;5173935;28;20049;-73
2022/04/10 07:53:59;;;;;;;16.88;9.60;;;5.40;99.90;;;;;;5182711;28;20052;-72
2022/04/10 07:56:32;;;;;;;14.00;8.45;;;5.50;99.30;;;;;;5166675;28;20049;-73
2022/04/10 07:59:08;;;;;;;11.63;8.27;;;5.70;98.30;;;;;;5179705;28;20045;-74
2022/04/10 08:01:44;;;;;;;14.98;8.10;;;6.00;97.00;;;;;;5150232;28;20050;-73
2022/04/10 08:04:23;;;;;;;13.00;8.45;;;6.20;95.20;;;;;;5177610;28;20044;-73
2022/04/10 08:07:06;;;;;;;14.53;8.87;;;6.20;93.40;;;;;;5173182;28;20108;-72
2022/04/10 08:09:39;;;;;;;13.80;8.80;;;6.10;93.10;;;;;;5178519;28;20030;-73
2022/04/10 08:12:12;;;;;;;14.90;9.23;;;6.20;92.60;;;;;;5167839;28;20129;-73
2022/04/10 08:14:44;;;;;;;12.05;8.77;;;6.20;91.70;;;;;;5160981;28;20041;-74
2022/04/10 08:17:16;;;;;;;13.77;8.20;;;6.10;90.60;;;;;;5166649;28;20049;-73
2022/04/10 08:19:49;;;;;;;17.33;9.20;;;6.00;90.20;;;;;;5166518;28;20046;-73
2022/04/10 08:22:27;;;;;;;27.08;10.13;;;6.20;90.30;;;;;;5166682;28;20046;-73
2022/04/10 08:25:02;;;;;;;18.60;7.40;;;6.20;87.70;;;;;;5168088;28;20045;-72
2022/04/10 08:27:36;;;;;;;12.35;7.57;;;6.20;86.50;;;;;;5171802;28;20390;-74
2022/04/10 08:30:09;;;;;;;11.07;7.10;;;6.30;86.20;;;;;;5178726;28;20041;-73
2022/04/10 08:32:43;;;;;;;18.30;7.75;;;6.50;85.80;;;;;;5183478;28;21406;-73
2022/04/10 08:35:16;;;;;;;10.85;7.05;;;6.60;84.00;;;;;;5195319;28;20034;-73
2022/04/10 08:37:48;;;;;;;12.18;6.60;;;6.70;84.00;;;;;;5180383;28;20065;-72
2022/04/10 08:40:21;;;;;;;16.73;6.97;;;6.90;83.30;;;;;;5191664;28;20392;-73
2022/04/10 08:42:58;;;;;;;8.65;6.00;;;7.10;81.70;;;;;;5190215;28;20049;-73
2022/04/10 08:45:30;;;;;;;9.02;5.55;;;7.30;78.80;;;;;;5179109;28;20068;-73
2022/04/10 08:48:04;;;;;;;9.15;5.70;;;7.40;77.50;;;;;;5181859;28;20045;-73
2022/04/10 08:50:37;;;;;;;7.78;4.63;;;7.50;77.00;;;;;;5183951;28;20064;-73
2022/04/10 08:53:10;;;;;;;9.23;5.25;;;7.40;75.00;;;;;;5199228;28;20072;-73
2022/04/10 08:55:45;;;;;;;10.35;6.40;;;7.20;75.20;;;;;;5183491;28;20061;-73
2022/04/10 08:58:19;;;;;;;9.90;5.32;;;7.10;75.10;;;;;;5185344;28;20539;-73
2022/04/10 09:00:52;;;;;;;7.22;5.15;;;6.90;74.80;;;;;;5186344;28;20073;-73
2022/04/10 09:03:25;;;;;;;10.55;5.63;;;6.70;74.90;;;;;;5180491;28;20049;-73
2022/04/10 09:06:06;;;;;;;12.48;5.47;;;6.60;77.50;;;;;;5176632;28;20779;-73
2022/04/10 09:08:39;;;;;;;8.27;5.43;;;6.40;78.00;;;;;;5172265;28;20038;-73
2022/04/10 09:11:12;;;;;;;13.27;7.87;;;6.00;80.80;;;;;;5176745;28;20053;-72
2022/04/10 09:13:49;;;;;;;16.10;10.65;;;5.60;84.20;;;;;;5173281;28;20065;-72
2022/04/10 09:16:23;;;;;;;11.35;7.50;;;5.40;87.00;;;;;;5181148;28;20057;-73
2022/04/10 09:18:58;;;;;;;13.32;7.28;;;5.40;88.90;;;;;;5173494;28;20049;-72
2022/04/10 09:21:33;;;;;;;9.70;6.53;;;5.50;90.40;;;;;;5161823;28;20051;-73
2022/04/10 09:24:07;;;;;;;9.95;6.80;;;5.60;90.30;;;;;;5170931;28;20038;-72
2022/04/10 09:26:52;;;;;;;10.00;6.43;;;5.60;90.00;;;;;;5176238;28;21033;-72
2022/04/10 09:29:26;;;;;;;10.38;5.35;;;5.70;87.10;;;;;;5177353;28;20566;-72
2022/04/10 09:31:59;;;;;;;10.57;6.00;;;5.90;84.70;;;;;;5177788;28;20050;-75
2022/04/10 09:34:34;;;;;;;10.68;6.00;;;6.10;84.00;;;;;;5175225;28;20493;-73
2022/04/10 09:37:27;;;;;;;8.48;5.20;;;6.30;84.00;;;;;;5168797;28;20052;-72
2022/04/10 09:40:32;;;;;;;7.90;4.78;;;6.70;81.60;;;;;;5172651;28;20386;-73
2022/04/10 09:43:06;;;;;;;10.18;4.32;;;6.90;72.30;;;;;;5171482;28;20061;-73
2022/04/10 09:45:43;;;;;;;7.43;4.78;;;6.90;74.70;;;;;;5171457;28;20057;-72
2022/04/10 09:48:27;;;;;;;6.95;4.40;;;6.90;73.20;;;;;;5177010;28;20049;-74
2022/04/10 09:51:01;;;;;;;8.45;4.95;;;7.30;73.00;;;;;;5174440;28;20060;-73
2022/04/10 09:53:34;;;;;;;6.55;4.50;;;7.50;72.10;;;;;;5168218;28;20069;-72
2022/04/10 09:56:07;;;;;;;9.23;4.10;;;7.60;71.70;;;;;;5170824;28;22054;-73
2022/04/10 09:58:42;;;;;;;7.57;4.32;;;7.80;71.70;;;;;;5170923;28;20038;-72
2022/04/10 10:01:15;;;;;;;6.45;4.10;;;7.70;70.20;;;;;;5162446;28;20060;-72
2022/04/10 10:03:49;;;;;;;7.07;3.72;;;7.80;70.10;;;;;;5174944;28;20091;-71
2022/04/10 10:06:21;;;;;;;;;;;7.90;68.00;;;;;;5177925;28;20080;-72
2022/04/10 10:08:54;;;;;;;9.05;3.42;;;7.70;64.20;;;;;;5188645;28;19936;-75
2022/04/10 10:11:27;;;;;;;7.65;3.72;;;7.70;67.10;;;;;;5174806;28;20049;-74
2022/04/10 10:13:59;;;;;;;6.22;3.78;;;7.70;67.80;;;;;;5176450;28;20049;-74
2022/04/10 10:16:32;;;;;;;6.00;4.00;;;7.70;67.20;;;;;;5172124;28;20056;-74
2022/04/10 10:19:05;;;;;;;7.95;3.80;;;7.80;67.20;;;;;;5173991;28;20041;-73
2022/04/10 10:21:37;;;;;;;8.57;4.10;;;8.00;67.00;;;;;;5175926;28;20048;-72
2022/04/10 10:24:12;;;;;;;7.18;3.60;;;8.10;65.80;;;;;;5173919;28;20053;-73
2022/04/10 10:27:21;;;;;;;4.85;2.90;;;8.30;64.70;;;;;;5182227;28;20056;-72
2022/04/10 10:30:20;;;;;;;7.88;3.75;;;8.50;60.40;;;;;;5176252;28;20046;-73
2022/04/10 10:33:10;;;;;;;6.30;3.67;;;8.60;62.70;;;;;;5180931;28;20343;-73
2022/04/10 10:35:56;;;;;;;6.88;2.90;;;8.50;62.30;;;;;;5181516;28;20053;-72
2022/04/10 10:38:31;;;;;;;6.05;3.65;;;8.20;60.40;;;;;;5172058;28;20045;-71
2022/04/10 10:41:16;;;;;;;9.15;3.83;;;7.90;62.80;;;;;;5193382;28;20041;-72
2022/04/10 10:43:49;;;;;;;4.80;3.63;;;7.90;64.50;;;;;;5181642;28;20053;-73
2022/04/10 10:46:32;;;;;;;4.90;3.43;;;7.70;63.90;;;;;;4826467;28;9999993;-73
2022/04/10 10:49:18;;;;;;;7.95;3.90;;;7.60;63.20;;;;;;5171201;28;20307;-73
2022/04/10 10:51:52;;;;;;;7.60;4.00;;;7.50;64.40;;;;;;5175925;28;20051;-73
2022/04/10 10:54:25;;;;;;;6.72;3.80;;;7.40;66.50;;;;;;5178151;28;20592;-73
2022/04/10 10:56:58;;;;;;;7.03;3.50;;;7.40;67.30;;;;;;5182283;28;20060;-73
2022/04/10 10:59:32;;;;;;;9.80;4.55;;;7.60;69.10;;;;;;5183024;28;20065;-72
2022/04/10 11:02:12;;;;;;;11.57;3.70;;;7.90;66.90;;;;;;5179994;28;20045;-72
2022/04/10 11:05:35;;;;;;;8.10;3.40;;;8.30;64.40;;;;;;5190990;28;20037;-72
2022/04/10 11:08:10;;;;;;;4.57;3.33;;;8.60;64.40;;;;;;5174610;28;20049;-73
2022/04/10 11:11:04;;;;;;;7.20;3.78;;;9.10;64.00;;;;;;5170568;28;20512;-73
2022/04/10 11:13:42;;;;;;;4.50;3.08;;;9.50;59.40;;;;;;5182507;28;20390;-73
2022/04/10 11:16:15;;;;;;;4.88;3.33;;;9.40;61.00;;;;;;5174367;28;21121;-73
2022/04/10 11:18:53;;;;;;;6.65;3.53;;;9.20;61.70;;;;;;5171674;28;20056;-72
2022/04/10 11:21:27;;;;;;;4.53;3.15;;;9.10;61.30;;;;;;5154783;28;20053;-73
2022/04/10 11:24:00;;;;;;;7.90;3.42;;;8.60;63.90;;;;;;5177733;28;20042;-73
2022/04/10 11:26:42;;;;;;;7.20;3.55;;;8.30;65.20;;;;;;5181994;28;20038;-71
2022/04/10 11:29:20;;;;;;;7.72;3.67;;;8.20;66.00;;;;;;5175233;28;20038;-72
2022/04/10 11:31:53;;;;;;;9.02;4.03;;;8.20;64.90;;;;;;5178920;28;20046;-72
2022/04/10 11:34:26;;;;;;;8.25;3.92;;;8.30;64.40;;;;;;5182812;28;20050;-73
2022/04/10 11:37:01;;;;;;;4.55;3.25;;;8.60;64.30;;;;;;5179542;28;20584;-73
2022/04/10 11:39:35;;;;;;;4.90;3.33;;;8.80;64.40;;;;;;5177790;28;20053;-72
2022/04/10 11:42:08;;;;;;;4.93;3.33;;;8.90;64.40;;;;;;5170426;28;20049;-72
2022/04/10 11:44:40;;;;;;;8.13;4.63;;;8.90;64.80;;;;;;5175240;28;20042;-73
2022/04/10 11:47:13;;;;;;;6.90;4.40;;;8.80;64.60;;;;;;5172744;28;20325;-73
2022/04/10 11:49:53;;;;;;;7.35;3.58;;;8.50;65.90;;;;;;5159303;28;20042;-72
2022/04/10 11:52:26;;;;;;;10.13;5.03;;;8.40;65.90;;;;;;5162460;28;20045;-73
2022/04/10 11:54:58;;;;;;;9.63;4.90;;;8.10;66.80;;;;;;5171614;28;20670;-72
2022/04/10 11:57:30;;;;;;;13.52;6.38;;;7.70;69.10;;;;;;5174676;28;20505;-72
2022/04/10 12:00:09;;;;;;;8.13;5.13;;;7.30;72.20;;;;;;5174591;28;20046;-72
2022/04/10 12:02:42;;;;;;;10.27;6.68;;;7.00;75.20;;;;;;5174150;28;20049;-72
2022/04/10 12:05:14;;;;;;;11.85;7.03;;;7.00;77.10;;;;;;5182185;28;20755;-72
2022/04/10 12:07:47;;;;;;;8.77;5.75;;;6.90;77.90;;;;;;5182966;28;20041;-73
2022/04/10 12:10:19;;;;;;;10.95;6.00;;;6.90;77.70;;;;;;5188575;28;20076;-72
2022/04/10 12:12:53;;;;;;;7.30;5.38;;;6.90;77.50;;;;;;5180208;28;20045;-72
2022/04/10 12:15:26;;;;;;;6.40;4.72;;;7.00;77.00;;;;;;5189347;28;20049;-73
2022/04/10 12:18:12;;;;;;;8.10;4.68;;;7.30;77.50;;;;;;5172881;28;20053;-72
2022/04/10 12:20:44;;;;;;;8.57;5.32;;;7.90;76.70;;;;;;5163593;28;20827;-72
2022/04/10 12:23:19;;;;;;;7.30;4.68;;;8.70;74.30;;;;;;5178544;28;20053;-73
2022/04/10 12:25:57;;;;;;;10.02;5.88;;;9.10;70.60;;;;;;5183187;28;20429;-73
2022/04/10 12:28:30;;;;;;;6.40;4.47;;;9.20;70.60;;;;;;5182988;28;21045;-73
2022/04/10 12:31:03;;;;;;;6.97;4.18;;;9.80;69.10;;;;;;5168409;28;20049;-73
2022/04/10 12:33:36;;;;;;;9.40;4.90;;;10.10;69.20;;;;;;5183022;28;20436;-73
2022/04/10 12:36:19;;;;;;;6.60;4.47;;;10.60;66.70;;;;;;5183248;28;20297;-73
2022/04/10 12:38:53;;;;;;;5.85;4.50;;;10.70;64.90;;;;;;5184460;28;20048;-73
2022/04/10 12:41:26;;;;;;;5.05;4.32;;;10.70;66.20;;;;;;5183475;28;20050;-73
2022/04/10 12:44:03;;;;;;;5.88;4.15;;;10.80;66.40;;;;;;5182333;28;20050;-73
2022/04/10 12:46:37;;;;;;;6.43;3.38;;;11.00;64.90;;;;;;5179682;28;20046;-73
2022/04/10 12:49:14;;;;;;;4.88;3.97;;;11.60;63.30;;;;;;5181848;28;20042;-72
2022/04/10 12:51:50;;;;;;;5.30;3.60;;;11.50;63.50;;;;;;5171202;28;20145;-73
2022/04/10 12:54:43;;;;;;;7.63;4.28;;;11.00;62.00;;;;;;5173019;28;20057;-72
2022/04/10 12:57:27;;;;;;;7.72;4.75;;;10.30;62.90;;;;;;5175531;28;20064;-72
2022/04/10 12:59:59;;;;;;;9.90;4.75;;;9.90;64.50;;;;;;5173764;28;21139;-73
2022/04/10 13:02:36;;;;;;;5.77;4.13;;;9.80;65.40;;;;;;4138245;28;10000881;-73
2022/04/10 13:05:13;;;;;;;6.22;4.80;;;9.70;64.40;;;;;;5171267;28;20306;-72
2022/04/10 13:07:58;;;;;;;6.32;3.38;;;9.70;66.00;;;;;;5184588;28;20042;-73
2022/04/10 13:10:30;;;;;;;7.10;3.90;;;9.70;61.80;;;;;;5180442;28;20045;-73
2022/04/10 13:13:07;;;;;;;6.50;4.20;;;9.70;62.30;;;;;;5177050;28;20046;-73
2022/04/10 13:15:40;;;;;;;5.72;3.63;;;9.50;60.90;;;;;;5177423;28;20417;-73
2022/04/10 13:18:12;;;;;;;5.35;3.88;;;9.40;61.90;;;;;;5172770;28;20522;-73
2022/04/10 13:20:45;;;;;;;7.25;3.63;;;9.50;62.30;;;;;;5179015;28;20037;-72
2022/04/10 13:23:18;;;;;;;9.73;4.83;;;9.40;63.40;;;;;;5160688;28;20049;-72
2022/04/10 13:25:50;;;;;;;13.68;5.28;;;9.20;65.60;;;;;;5151866;28;20060;-73
2022/04/10 13:28:23;;;;;;;8.20;4.70;;;8.80;68.10;;;;;;5174439;28;20054;-74
2022/04/10 13:30:55;;;;;;;6.35;4.38;;;9.70;70.50;;;;;;5193188;28;20041;-74
2022/04/10 13:33:28;;;;;;;6.63;4.25;;;10.10;67.40;;;;;;5182627;28;20061;-74
2022/04/10 13:36:00;;;;;;;7.82;4.63;;;10.10;66.80;;;;;;5176842;28;20581;-74
2022/04/10 13:38:33;;;;;;;6.10;4.28;;;9.90;66.20;;;;;;5175338;28;20516;-74
2022/04/10 13:41:05;;;;;;;7.65;3.97;;;9.70;66.00;;;;;;5176885;28;20045;-74
2022/04/10 13:43:38;;;;;;;6.78;4.75;;;9.70;66.30;;;;;;5180145;28;20046;-74
2022/04/10 13:46:10;;;;;;;7.95;4.00;;;9.50;66.70;;;;;;5175837;28;20065;-74
2022/04/10 13:48:43;;;;;;;8.85;5.30;;;9.30;67.10;;;;;;5166624;28;20052;-73
2022/04/10 13:51:15;;;;;;;9.25;5.88;;;8.70;71.30;;;;;;5183477;28;20052;-74
2022/04/10 13:53:48;;;;;;;16.85;6.32;;;7.90;76.00;;;;;;5181156;28;20045;-72
2022/04/10 13:56:20;;;;;;;11.18;7.00;;;7.40;78.60;;;;;;5181648;28;20058;-73
2022/04/10 13:58:53;;;;;;;9.38;6.25;;;7.30;81.70;;;;;;5176608;28;20702;-74
2022/04/10 14:01:26;;;;;;;12.15;6.38;;;7.50;82.20;;;;;;5178297;28;20054;-74